Airfield :
LOGIN :

Register | Disclaimer

   EN    FR    IT 

 










Legend :    VFR   Marginal VFR   IFR   Intensive IFR   Very Intensive IFR
Visi :
Ceiling :
>= 8 km
>= 3000ft
5 to 8 km
1000 to 3000 ft
1500m to 5 km
500 to 1000 ft
800 to 1500m
200 to 500 ft
< 800m
< 200 ft
Symbols :   Thunderstorms  Fog  Heavy snow  Heavy precipitations  Wind > 20 kt
SIGMETs :     Misc.  Thunderstorms  Icing  Turbulence  Mountain Waves  Volcanic Ashes







- Airport Elevation : 2220 ft


LOXZ - Zeltweg AB

CURRENT METAR :
  • 121750Z 21005KT 140V230 15KM FEW055SC BKN065SC BKN120AC 05/M02 Q1011 NOSIG

EXPIRED METARs :
  • 121720Z 26007KT 220V280 15KM FEW055SC SCT060SC BKN120AC 04/M01 Q1011 NOSIG
  • 121650Z 25004KT 200V280 12KM FEW055SC SCT060SC BKN120AC 04/00 Q1010 NOSIG
  • 121620Z 30004KT 260V350 20KM FEW055SC SCT060SC BKN120AC 05/01 Q1009 NOSIG
  • 121550Z 07005KT 20KM FEW055SC SCT060SC BKN130AC 06/01 Q1009 NOSIG
  • 121520Z 07008KT 030V090 30KM FEW050SC BKN130AC 07/01 Q1008 NOSIG
  • 121450Z 07010KT 30KM FEW055SC SCT060SC BKN130AC 07/02 Q1008 NOSIG

TAF TAF LOXZ
Valid from the 12 at 15:00 until the 13 at 00:00 UTC


121415Z 1215/1224 07008KT 9999 SCT050 BKN120
BECMG 1218/1221 VRB03KT 5000 -RASN FEW010 SCT040 BKN050
No reported NOTAMs for that airfield.



MET'MAP, your aeronautical weather chart ! - Copyright ORBIFLY December 2007 - Disclaimer

ORBIFLY MET'MAP TEAM :

Programming & Development : Alexandra Zaïnal
Concept & Development : Baudouin d'Aumeries
Co-Development & Prog : Marc-Olivier Méhu
Technical & hardware support : Manuel Goepfert

Contact : metmap@orbifly.com




SOURCES & CREDITS :

   NOAA